sensor_id;sensor_type;location;lat;lon;timestamp;temperature;humidity
49132;DHT22;35149;51.196;6.204;2023-05-07T00:01:25;17.90;71.30
49132;DHT22;35149;51.196;6.204;2023-05-07T00:03:54;17.80;71.30
49132;DHT22;35149;51.196;6.204;2023-05-07T00:06:24;17.80;71.30
49132;DHT22;35149;51.196;6.204;2023-05-07T00:08:56;17.70;71.50
49132;DHT22;35149;51.196;6.204;2023-05-07T00:11:27;17.70;71.50
49132;DHT22;35149;51.196;6.204;2023-05-07T00:13:57;17.70;71.60
49132;DHT22;35149;51.196;6.204;2023-05-07T00:16:24;17.70;71.70
49132;DHT22;35149;51.196;6.204;2023-05-07T00:18:56;17.60;72.20
49132;DHT22;35149;51.196;6.204;2023-05-07T00:21:27;17.60;71.70
49132;DHT22;35149;51.196;6.204;2023-05-07T00:23:59;17.60;71.80
49132;DHT22;35149;51.196;6.204;2023-05-07T00:26:25;17.60;71.90
49132;DHT22;35149;51.196;6.204;2023-05-07T00:28:52;17.50;71.70
49132;DHT22;35149;51.196;6.204;2023-05-07T00:31:21;17.50;71.80
49132;DHT22;35149;51.196;6.204;2023-05-07T00:33:58;17.40;71.70
49132;DHT22;35149;51.196;6.204;2023-05-07T00:36:25;17.50;71.70
49132;DHT22;35149;51.196;6.204;2023-05-07T00:38:53;17.40;71.60
49132;DHT22;35149;51.196;6.204;2023-05-07T00:41:24;17.40;71.70
49132;DHT22;35149;51.196;6.204;2023-05-07T00:43:53;17.30;71.70
49132;DHT22;35149;51.196;6.204;2023-05-07T00:46:20;17.30;71.60
49132;DHT22;35149;51.196;6.204;2023-05-07T00:48:51;17.30;71.60
49132;DHT22;35149;51.196;6.204;2023-05-07T00:51:18;17.30;71.60
49132;DHT22;35149;51.196;6.204;2023-05-07T00:53:47;17.30;71.70
49132;DHT22;35149;51.196;6.204;2023-05-07T00:56:14;17.30;71.80
49132;DHT22;35149;51.196;6.204;2023-05-07T00:58:41;17.20;71.70
49132;DHT22;35149;51.196;6.204;2023-05-07T01:01:13;17.30;71.80
49132;DHT22;35149;51.196;6.204;2023-05-07T01:03:42;17.20;71.80
49132;DHT22;35149;51.196;6.204;2023-05-07T01:06:10;17.20;72.00
49132;DHT22;35149;51.196;6.204;2023-05-07T01:08:43;17.20;72.10
49132;DHT22;35149;51.196;6.204;2023-05-07T01:11:10;17.20;72.30
49132;DHT22;35149;51.196;6.204;2023-05-07T01:13:41;17.20;72.30
49132;DHT22;35149;51.196;6.204;2023-05-07T01:16:10;17.20;72.40
49132;DHT22;35149;51.196;6.204;2023-05-07T01:18:39;17.20;72.60
49132;DHT22;35149;51.196;6.204;2023-05-07T01:21:07;17.20;72.60
49132;DHT22;35149;51.196;6.204;2023-05-07T01:23:40;17.20;72.70
49132;DHT22;35149;51.196;6.204;2023-05-07T01:26:07;17.30;72.70
49132;DHT22;35149;51.196;6.204;2023-05-07T01:28:37;17.30;72.80
49132;DHT22;35149;51.196;6.204;2023-05-07T01:31:04;17.30;72.90
49132;DHT22;35149;51.196;6.204;2023-05-07T01:33:35;17.30;72.80
49132;DHT22;35149;51.196;6.204;2023-05-07T01:36:06;17.30;72.90
49132;DHT22;35149;51.196;6.204;2023-05-07T01:38:38;17.30;72.80
49132;DHT22;35149;51.196;6.204;2023-05-07T01:41:07;17.30;72.80
49132;DHT22;35149;51.196;6.204;2023-05-07T01:43:36;17.30;72.80
49132;DHT22;35149;51.196;6.204;2023-05-07T01:46:08;17.30;73.00
49132;DHT22;35149;51.196;6.204;2023-05-07T01:48:37;17.30;72.90
49132;DHT22;35149;51.196;6.204;2023-05-07T01:51:10;17.30;73.10
49132;DHT22;35149;51.196;6.204;2023-05-07T01:53:39;17.30;73.10
49132;DHT22;35149;51.196;6.204;2023-05-07T01:56:09;17.30;73.10
49132;DHT22;35149;51.196;6.204;2023-05-07T01:58:40;17.30;72.90
49132;DHT22;35149;51.196;6.204;2023-05-07T02:01:07;17.30;72.90
49132;DHT22;35149;51.196;6.204;2023-05-07T02:03:34;17.30;72.70
49132;DHT22;35149;51.196;6.204;2023-05-07T02:06:10;17.30;72.60
49132;DHT22;35149;51.196;6.204;2023-05-07T02:08:38;17.30;72.50
49132;DHT22;35149;51.196;6.204;2023-05-07T02:11:09;17.30;73.10
49132;DHT22;35149;51.196;6.204;2023-05-07T02:13:41;17.20;72.40
49132;DHT22;35149;51.196;6.204;2023-05-07T02:16:12;17.20;72.80
49132;DHT22;35149;51.196;6.204;2023-05-07T02:18:45;17.20;72.10
49132;DHT22;35149;51.196;6.204;2023-05-07T02:21:12;17.20;71.90
49132;DHT22;35149;51.196;6.204;2023-05-07T02:23:41;17.20;71.90
49132;DHT22;35149;51.196;6.204;2023-05-07T02:26:15;17.10;71.90
49132;DHT22;35149;51.196;6.204;2023-05-07T02:28:48;17.10;71.90
49132;DHT22;35149;51.196;6.204;2023-05-07T02:31:15;17.00;71.80
49132;DHT22;35149;51.196;6.204;2023-05-07T02:33:44;17.00;71.70
49132;DHT22;35149;51.196;6.204;2023-05-07T02:36:12;17.00;71.80
49132;DHT22;35149;51.196;6.204;2023-05-07T02:38:51;16.90;71.70
49132;DHT22;35149;51.196;6.204;2023-05-07T02:41:18;16.90;71.80
49132;DHT22;35149;51.196;6.204;2023-05-07T02:43:47;16.90;71.80
49132;DHT22;35149;51.196;6.204;2023-05-07T02:46:21;16.90;71.90
49132;DHT22;35149;51.196;6.204;2023-05-07T02:48:55;16.90;72.10
49132;DHT22;35149;51.196;6.204;2023-05-07T02:51:25;16.80;72.10
49132;DHT22;35149;51.196;6.204;2023-05-07T02:53:57;16.80;72.20
49132;DHT22;35149;51.196;6.204;2023-05-07T02:56:28;16.80;72.30
49132;DHT22;35149;51.196;6.204;2023-05-07T02:58:56;16.80;72.30
49132;DHT22;35149;51.196;6.204;2023-05-07T03:01:27;16.80;72.50
49132;DHT22;35149;51.196;6.204;2023-05-07T03:04:14;16.80;72.50
49132;DHT22;35149;51.196;6.204;2023-05-07T03:06:43;16.80;72.50
49132;DHT22;35149;51.196;6.204;2023-05-07T03:09:12;16.80;72.50
49132;DHT22;35149;51.196;6.204;2023-05-07T03:11:42;16.70;72.50
49132;DHT22;35149;51.196;6.204;2023-05-07T03:14:08;16.80;72.70
49132;DHT22;35149;51.196;6.204;2023-05-07T03:16:38;16.80;72.70
49132;DHT22;35149;51.196;6.204;2023-05-07T03:19:04;16.80;72.70
49132;DHT22;35149;51.196;6.204;2023-05-07T03:21:34;16.70;72.70
49132;DHT22;35149;51.196;6.204;2023-05-07T03:24:03;16.80;72.70
49132;DHT22;35149;51.196;6.204;2023-05-07T03:26:35;16.70;72.80
49132;DHT22;35149;51.196;6.204;2023-05-07T03:29:04;16.80;72.70
49132;DHT22;35149;51.196;6.204;2023-05-07T03:31:33;16.80;72.70
49132;DHT22;35149;51.196;6.204;2023-05-07T03:34:05;16.80;72.70
49132;DHT22;35149;51.196;6.204;2023-05-07T03:36:34;16.80;72.60
49132;DHT22;35149;51.196;6.204;2023-05-07T03:39:02;16.80;72.80
49132;DHT22;35149;51.196;6.204;2023-05-07T03:41:36;16.70;72.60
49132;DHT22;35149;51.196;6.204;2023-05-07T03:44:03;16.70;72.70
49132;DHT22;35149;51.196;6.204;2023-05-07T03:46:35;16.70;72.80
49132;DHT22;35149;51.196;6.204;2023-05-07T03:49:08;16.70;72.60
49132;DHT22;35149;51.196;6.204;2023-05-07T03:51:35;16.70;73.10
49132;DHT22;35149;51.196;6.204;2023-05-07T03:54:04;16.70;72.50
49132;DHT22;35149;51.196;6.204;2023-05-07T03:56:32;16.70;72.50
49132;DHT22;35149;51.196;6.204;2023-05-07T03:59:03;16.60;72.40
49132;DHT22;35149;51.196;6.204;2023-05-07T04:01:32;16.70;72.50
49132;DHT22;35149;51.196;6.204;2023-05-07T04:03:59;16.60;72.40
49132;DHT22;35149;51.196;6.204;2023-05-07T04:06:27;16.60;72.30
49132;DHT22;35149;51.196;6.204;2023-05-07T04:08:54;16.60;72.30
49132;DHT22;35149;51.196;6.204;2023-05-07T04:11:21;16.50;72.30
49132;DHT22;35149;51.196;6.204;2023-05-07T04:13:55;16.50;72.40
49132;DHT22;35149;51.196;6.204;2023-05-07T04:16:27;16.50;72.60
49132;DHT22;35149;51.196;6.204;2023-05-07T04:18:56;16.50;72.70
49132;DHT22;35149;51.196;6.204;2023-05-07T04:21:23;16.50;72.70
49132;DHT22;35149;51.196;6.204;2023-05-07T04:23:53;16.50;72.60
49132;DHT22;35149;51.196;6.204;2023-05-07T04:26:20;16.50;72.70
49132;DHT22;35149;51.196;6.204;2023-05-07T04:28:47;16.50;72.80
49132;DHT22;35149;51.196;6.204;2023-05-07T04:31:17;16.50;73.00
49132;DHT22;35149;51.196;6.204;2023-05-07T04:33:48;16.50;73.10
49132;DHT22;35149;51.196;6.204;2023-05-07T04:36:22;16.60;73.20
49132;DHT22;35149;51.196;6.204;2023-05-07T04:39:02;16.60;73.40
49132;DHT22;35149;51.196;6.204;2023-05-07T04:41:31;16.60;73.30
49132;DHT22;35149;51.196;6.204;2023-05-07T04:44:02;16.60;73.50
49132;DHT22;35149;51.196;6.204;2023-05-07T04:46:33;16.60;73.60
49132;DHT22;35149;51.196;6.204;2023-05-07T04:49:01;16.70;73.70
49132;DHT22;35149;51.196;6.204;2023-05-07T04:51:28;16.70;73.80
49132;DHT22;35149;51.196;6.204;2023-05-07T04:53:55;16.70;73.90
49132;DHT22;35149;51.196;6.204;2023-05-07T04:56:26;16.70;73.90
49132;DHT22;35149;51.196;6.204;2023-05-07T04:58:53;16.80;74.20
49132;DHT22;35149;51.196;6.204;2023-05-07T05:01:21;16.80;74.10
49132;DHT22;35149;51.196;6.204;2023-05-07T05:03:50;16.90;74.20
49132;DHT22;35149;51.196;6.204;2023-05-07T05:06:20;16.90;74.30
49132;DHT22;35149;51.196;6.204;2023-05-07T05:08:52;17.00;74.40
49132;DHT22;35149;51.196;6.204;2023-05-07T05:11:21;17.00;74.40
49132;DHT22;35149;51.196;6.204;2023-05-07T05:13:48;17.10;74.50
49132;DHT22;35149;51.196;6.204;2023-05-07T05:16:18;17.10;74.60
49132;DHT22;35149;51.196;6.204;2023-05-07T05:18:47;17.20;74.70
49132;DHT22;35149;51.196;6.204;2023-05-07T05:21:17;17.20;74.70
49132;DHT22;35149;51.196;6.204;2023-05-07T05:23:58;17.30;74.80
49132;DHT22;35149;51.196;6.204;2023-05-07T05:26:30;17.30;75.30
49132;DHT22;35149;51.196;6.204;2023-05-07T05:28:57;17.30;74.70
49132;DHT22;35149;51.196;6.204;2023-05-07T05:31:26;17.40;74.70
49132;DHT22;35149;51.196;6.204;2023-05-07T05:33:55;17.40;74.70
49132;DHT22;35149;51.196;6.204;2023-05-07T05:36:22;17.40;74.60
49132;DHT22;35149;51.196;6.204;2023-05-07T05:38:50;17.50;74.70
49132;DHT22;35149;51.196;6.204;2023-05-07T05:41:24;17.50;74.60
49132;DHT22;35149;51.196;6.204;2023-05-07T05:43:54;17.50;74.60
49132;DHT22;35149;51.196;6.204;2023-05-07T05:46:24;17.50;74.60
49132;DHT22;35149;51.196;6.204;2023-05-07T05:48:51;17.60;74.70
49132;DHT22;35149;51.196;6.204;2023-05-07T05:51:21;17.60;74.70
49132;DHT22;35149;51.196;6.204;2023-05-07T05:53:48;17.70;74.90
49132;DHT22;35149;51.196;6.204;2023-05-07T05:56:16;17.70;74.80
49132;DHT22;35149;51.196;6.204;2023-05-07T05:58:42;17.80;74.90
49132;DHT22;35149;51.196;6.204;2023-05-07T06:01:09;17.80;75.00
49132;DHT22;35149;51.196;6.204;2023-05-07T06:03:40;17.80;75.00
49132;DHT22;35149;51.196;6.204;2023-05-07T06:06:12;17.90;74.90
49132;DHT22;35149;51.196;6.204;2023-05-07T06:08:43;18.00;74.80
49132;DHT22;35149;51.196;6.204;2023-05-07T06:11:13;18.10;74.80
49132;DHT22;35149;51.196;6.204;2023-05-07T06:13:44;18.20;74.80
49132;DHT22;35149;51.196;6.204;2023-05-07T06:16:13;18.30;74.60
49132;DHT22;35149;51.196;6.204;2023-05-07T06:18:42;18.30;74.40
49132;DHT22;35149;51.196;6.204;2023-05-07T06:21:13;18.40;74.40
49132;DHT22;35149;51.196;6.204;2023-05-07T06:23:42;18.50;74.40
49132;DHT22;35149;51.196;6.204;2023-05-07T06:26:14;18.60;74.20
49132;DHT22;35149;51.196;6.204;2023-05-07T06:28:45;18.70;73.90
49132;DHT22;35149;51.196;6.204;2023-05-07T06:31:17;18.70;73.60
49132;DHT22;35149;51.196;6.204;2023-05-07T06:33:53;18.80;73.40
49132;DHT22;35149;51.196;6.204;2023-05-07T06:36:25;18.90;73.20
49132;DHT22;35149;51.196;6.204;2023-05-07T06:39:00;19.00;73.00
49132;DHT22;35149;51.196;6.204;2023-05-07T06:41:27;19.10;72.80
49132;DHT22;35149;51.196;6.204;2023-05-07T06:43:58;19.10;72.60
49132;DHT22;35149;51.196;6.204;2023-05-07T06:46:53;19.20;72.50
49132;DHT22;35149;51.196;6.204;2023-05-07T06:49:22;19.30;72.40
49132;DHT22;35149;51.196;6.204;2023-05-07T06:51:49;19.30;72.00
49132;DHT22;35149;51.196;6.204;2023-05-07T06:54:16;19.40;72.00
49132;DHT22;35149;51.196;6.204;2023-05-07T06:56:45;19.40;71.90
49132;DHT22;35149;51.196;6.204;2023-05-07T06:59:12;19.50;71.80
49132;DHT22;35149;51.196;6.204;2023-05-07T07:01:41;19.60;71.80
49132;DHT22;35149;51.196;6.204;2023-05-07T07:04:09;19.70;71.80
49132;DHT22;35149;51.196;6.204;2023-05-07T07:06:37;19.80;71.70
49132;DHT22;35149;51.196;6.204;2023-05-07T07:09:08;19.90;71.50
49132;DHT22;35149;51.196;6.204;2023-05-07T07:11:35;19.90;71.30
49132;DHT22;35149;51.196;6.204;2023-05-07T07:14:02;20.10;71.40
49132;DHT22;35149;51.196;6.204;2023-05-07T07:16:31;20.20;71.30
49132;DHT22;35149;51.196;6.204;2023-05-07T07:18:59;20.20;70.90
49132;DHT22;35149;51.196;6.204;2023-05-07T07:21:29;20.40;70.90
49132;DHT22;35149;51.196;6.204;2023-05-07T07:23:56;20.30;70.70
49132;DHT22;35149;51.196;6.204;2023-05-07T07:26:23;20.50;70.70
49132;DHT22;35149;51.196;6.204;2023-05-07T07:28:49;20.60;70.30
49132;DHT22;35149;51.196;6.204;2023-05-07T07:31:20;20.70;70.30
49132;DHT22;35149;51.196;6.204;2023-05-07T07:33:49;20.80;70.00
49132;DHT22;35149;51.196;6.204;2023-05-07T07:36:19;20.90;70.70
49132;DHT22;35149;51.196;6.204;2023-05-07T07:38:47;21.00;69.20
49132;DHT22;35149;51.196;6.204;2023-05-07T07:41:16;21.10;68.90
49132;DHT22;35149;51.196;6.204;2023-05-07T07:43:43;21.10;68.70
49132;DHT22;35149;51.196;6.204;2023-05-07T07:46:10;21.20;68.40
49132;DHT22;35149;51.196;6.204;2023-05-07T07:48:36;21.30;68.30
49132;DHT22;35149;51.196;6.204;2023-05-07T07:51:03;21.40;68.50
49132;DHT22;35149;51.196;6.204;2023-05-07T07:53:30;21.50;68.40
49132;DHT22;35149;51.196;6.204;2023-05-07T07:55:57;21.50;67.70
49132;DHT22;35149;51.196;6.204;2023-05-07T07:58:27;21.60;67.70
49132;DHT22;35149;51.196;6.204;2023-05-07T08:00:54;21.70;67.40
49132;DHT22;35149;51.196;6.204;2023-05-07T08:03:23;21.70;67.10
49132;DHT22;35149;51.196;6.204;2023-05-07T08:05:54;21.80;66.80
49132;DHT22;35149;51.196;6.204;2023-05-07T08:08:21;21.90;66.90
49132;DHT22;35149;51.196;6.204;2023-05-07T08:10:48;21.90;66.40
49132;DHT22;35149;51.196;6.204;2023-05-07T08:13:24;21.90;66.10
49132;DHT22;35149;51.196;6.204;2023-05-07T08:15:51;22.00;65.80
49132;DHT22;35149;51.196;6.204;2023-05-07T08:18:17;22.00;65.80
49132;DHT22;35149;51.196;6.204;2023-05-07T08:20:44;22.10;65.60
49132;DHT22;35149;51.196;6.204;2023-05-07T08:23:15;22.10;65.40
49132;DHT22;35149;51.196;6.204;2023-05-07T08:25:44;22.20;65.00
49132;DHT22;35149;51.196;6.204;2023-05-07T08:28:12;22.20;64.40
49132;DHT22;35149;51.196;6.204;2023-05-07T08:30:39;22.20;64.20
49132;DHT22;35149;51.196;6.204;2023-05-07T08:33:09;22.30;64.30
49132;DHT22;35149;51.196;6.204;2023-05-07T08:35:36;22.30;64.00
49132;DHT22;35149;51.196;6.204;2023-05-07T08:38:04;22.30;64.20
49132;DHT22;35149;51.196;6.204;2023-05-07T08:40:37;22.40;64.20
49132;DHT22;35149;51.196;6.204;2023-05-07T08:43:08;22.50;63.90
49132;DHT22;35149;51.196;6.204;2023-05-07T08:45:40;22.50;64.00
49132;DHT22;35149;51.196;6.204;2023-05-07T08:48:16;22.60;63.90
49132;DHT22;35149;51.196;6.204;2023-05-07T08:50:49;22.70;63.00
49132;DHT22;35149;51.196;6.204;2023-05-07T08:53:17;22.80;63.50
49132;DHT22;35149;51.196;6.204;2023-05-07T08:55:45;22.80;63.60
49132;DHT22;35149;51.196;6.204;2023-05-07T08:58:13;22.90;63.60
49132;DHT22;35149;51.196;6.204;2023-05-07T09:00:42;22.90;63.10
49132;DHT22;35149;51.196;6.204;2023-05-07T09:03:09;23.00;62.80
49132;DHT22;35149;51.196;6.204;2023-05-07T09:05:40;23.10;62.60
49132;DHT22;35149;51.196;6.204;2023-05-07T09:08:08;23.20;62.60
49132;DHT22;35149;51.196;6.204;2023-05-07T09:10:36;23.20;62.10
49132;DHT22;35149;51.196;6.204;2023-05-07T09:13:04;23.30;62.30
49132;DHT22;35149;51.196;6.204;2023-05-07T09:15:31;23.30;62.00
49132;DHT22;35149;51.196;6.204;2023-05-07T09:18:00;23.30;62.00
49132;DHT22;35149;51.196;6.204;2023-05-07T09:20:30;23.30;62.00
49132;DHT22;35149;51.196;6.204;2023-05-07T09:22:59;23.30;62.10
49132;DHT22;35149;51.196;6.204;2023-05-07T09:25:31;23.40;62.20
49132;DHT22;35149;51.196;6.204;2023-05-07T09:28:04;23.40;62.20
49132;DHT22;35149;51.196;6.204;2023-05-07T09:30:31;23.50;62.00
49132;DHT22;35149;51.196;6.204;2023-05-07T09:33:02;23.60;61.50
49132;DHT22;35149;51.196;6.204;2023-05-07T09:35:30;23.70;61.40
49132;DHT22;35149;51.196;6.204;2023-05-07T09:38:03;23.70;61.10
49132;DHT22;35149;51.196;6.204;2023-05-07T09:40:33;23.80;60.70
49132;DHT22;35149;51.196;6.204;2023-05-07T09:43:11;23.80;60.40
49132;DHT22;35149;51.196;6.204;2023-05-07T09:45:46;23.80;60.20
49132;DHT22;35149;51.196;6.204;2023-05-07T09:48:19;23.80;60.10
49132;DHT22;35149;51.196;6.204;2023-05-07T09:50:49;23.80;60.50
49132;DHT22;35149;51.196;6.204;2023-05-07T09:53:21;23.70;60.40
49132;DHT22;35149;51.196;6.204;2023-05-07T09:55:49;23.70;60.60
49132;DHT22;35149;51.196;6.204;2023-05-07T09:58:19;23.70;60.60
49132;DHT22;35149;51.196;6.204;2023-05-07T10:00:46;23.70;60.40
49132;DHT22;35149;51.196;6.204;2023-05-07T10:03:18;23.80;60.40
49132;DHT22;35149;51.196;6.204;2023-05-07T10:05:54;23.80;60.80
49132;DHT22;35149;51.196;6.204;2023-05-07T10:08:21;23.80;60.20
49132;DHT22;35149;51.196;6.204;2023-05-07T10:10:51;23.90;60.60
49132;DHT22;35149;51.196;6.204;2023-05-07T10:13:22;24.00;60.60
49132;DHT22;35149;51.196;6.204;2023-05-07T10:15:55;24.10;60.30
49132;DHT22;35149;51.196;6.204;2023-05-07T10:18:25;24.30;60.30
49132;DHT22;35149;51.196;6.204;2023-05-07T10:23:33;24.50;59.50
49132;DHT22;35149;51.196;6.204;2023-05-07T10:26:04;24.60;59.10
49132;DHT22;35149;51.196;6.204;2023-05-07T10:28:36;24.70;58.90
49132;DHT22;35149;51.196;6.204;2023-05-07T10:31:36;24.80;58.60
49132;DHT22;35149;51.196;6.204;2023-05-07T10:33:59;24.90;58.10
49132;DHT22;35149;51.196;6.204;2023-05-07T10:36:27;24.90;58.10
49132;DHT22;35149;51.196;6.204;2023-05-07T10:38:55;25.00;57.90
49132;DHT22;35149;51.196;6.204;2023-05-07T10:41:21;25.00;57.60
49132;DHT22;35149;51.196;6.204;2023-05-07T10:43:50;25.00;57.40
49132;DHT22;35149;51.196;6.204;2023-05-07T10:46:22;25.10;57.70
49132;DHT22;35149;51.196;6.204;2023-05-07T10:49:10;25.10;57.30
49132;DHT22;35149;51.196;6.204;2023-05-07T10:52:18;25.10;57.20
49132;DHT22;35149;51.196;6.204;2023-05-07T10:58:33;25.20;56.80
49132;DHT22;35149;51.196;6.204;2023-05-07T11:02:04;25.30;56.20
49132;DHT22;35149;51.196;6.204;2023-05-07T11:04:40;25.30;55.40
49132;DHT22;35149;51.196;6.204;2023-05-07T11:07:26;25.40;55.50
49132;DHT22;35149;51.196;6.204;2023-05-07T11:09:58;25.40;55.10
49132;DHT22;35149;51.196;6.204;2023-05-07T11:15:14;25.50;55.60
49132;DHT22;35149;51.196;6.204;2023-05-07T11:17:57;25.50;55.30
49132;DHT22;35149;51.196;6.204;2023-05-07T11:20:44;25.60;53.90
49132;DHT22;35149;51.196;6.204;2023-05-07T11:26:27;25.70;53.30
49132;DHT22;35149;51.196;6.204;2023-05-07T11:28:55;25.80;53.90
49132;DHT22;35149;51.196;6.204;2023-05-07T11:31:26;25.90;53.60
49132;DHT22;35149;51.196;6.204;2023-05-07T11:33:57;25.90;53.00
49132;DHT22;35149;51.196;6.204;2023-05-07T11:36:24;25.90;52.60
49132;DHT22;35149;51.196;6.204;2023-05-07T11:38:53;26.00;51.90
49132;DHT22;35149;51.196;6.204;2023-05-07T11:41:23;26.10;51.70
49132;DHT22;35149;51.196;6.204;2023-05-07T11:43:59;26.10;51.80
49132;DHT22;35149;51.196;6.204;2023-05-07T11:46:27;26.10;51.60
49132;DHT22;35149;51.196;6.204;2023-05-07T11:48:55;26.20;51.50
49132;DHT22;35149;51.196;6.204;2023-05-07T11:51:24;26.10;51.50
49132;DHT22;35149;51.196;6.204;2023-05-07T11:53:53;26.10;51.80
49132;DHT22;35149;51.196;6.204;2023-05-07T11:56:19;26.10;51.30
49132;DHT22;35149;51.196;6.204;2023-05-07T11:58:47;26.00;51.70
49132;DHT22;35149;51.196;6.204;2023-05-07T12:01:15;26.00;52.30
49132;DHT22;35149;51.196;6.204;2023-05-07T12:03:44;25.90;52.20
49132;DHT22;35149;51.196;6.204;2023-05-07T12:06:15;25.80;52.30
49132;DHT22;35149;51.196;6.204;2023-05-07T12:08:43;25.70;52.00
49132;DHT22;35149;51.196;6.204;2023-05-07T12:11:16;25.60;51.60
49132;DHT22;35149;51.196;6.204;2023-05-07T12:13:44;25.60;51.90
49132;DHT22;35149;51.196;6.204;2023-05-07T12:16:11;25.50;52.80
49132;DHT22;35149;51.196;6.204;2023-05-07T12:18:38;25.40;52.40
49132;DHT22;35149;51.196;6.204;2023-05-07T12:21:06;25.30;52.00
49132;DHT22;35149;51.196;6.204;2023-05-07T12:23:34;25.30;52.40
49132;DHT22;35149;51.196;6.204;2023-05-07T12:26:01;25.20;52.90
49132;DHT22;35149;51.196;6.204;2023-05-07T12:28:37;25.10;53.10
49132;DHT22;35149;51.196;6.204;2023-05-07T12:31:05;25.10;52.70
49132;DHT22;35149;51.196;6.204;2023-05-07T12:33:32;25.00;53.00
49132;DHT22;35149;51.196;6.204;2023-05-07T12:36:03;24.90;53.00
49132;DHT22;35149;51.196;6.204;2023-05-07T12:38:37;24.90;53.20
49132;DHT22;35149;51.196;6.204;2023-05-07T12:41:05;24.80;53.70
49132;DHT22;35149;51.196;6.204;2023-05-07T12:43:33;24.70;54.40
49132;DHT22;35149;51.196;6.204;2023-05-07T12:46:03;24.70;54.20
49132;DHT22;35149;51.196;6.204;2023-05-07T12:48:30;24.60;54.20
49132;DHT22;35149;51.196;6.204;2023-05-07T12:50:58;24.60;53.90
49132;DHT22;35149;51.196;6.204;2023-05-07T12:53:26;24.60;54.60
49132;DHT22;35149;51.196;6.204;2023-05-07T12:55:56;24.60;54.90
49132;DHT22;35149;51.196;6.204;2023-05-07T12:58:28;24.60;54.60
49132;DHT22;35149;51.196;6.204;2023-05-07T13:00:57;24.70;54.30
49132;DHT22;35149;51.196;6.204;2023-05-07T13:03:29;24.70;53.80
49132;DHT22;35149;51.196;6.204;2023-05-07T13:06:02;24.80;53.90
49132;DHT22;35149;51.196;6.204;2023-05-07T13:08:31;24.70;53.70
49132;DHT22;35149;51.196;6.204;2023-05-07T13:10:59;24.70;53.40
49132;DHT22;35149;51.196;6.204;2023-05-07T13:13:37;24.80;53.80
49132;DHT22;35149;51.196;6.204;2023-05-07T13:16:07;25.10;53.30
49132;DHT22;35149;51.196;6.204;2023-05-07T13:18:36;24.90;53.10
49132;DHT22;35149;51.196;6.204;2023-05-07T13:21:03;25.00;53.30
49132;DHT22;35149;51.196;6.204;2023-05-07T13:23:30;25.10;53.70
49132;DHT22;35149;51.196;6.204;2023-05-07T13:25:56;25.20;53.30
49132;DHT22;35149;51.196;6.204;2023-05-07T13:28:26;25.10;53.10
49132;DHT22;35149;51.196;6.204;2023-05-07T13:30:53;25.20;52.70
49132;DHT22;35149;51.196;6.204;2023-05-07T13:33:21;25.30;52.50
49132;DHT22;35149;51.196;6.204;2023-05-07T13:35:47;25.30;52.70
49132;DHT22;35149;51.196;6.204;2023-05-07T13:38:14;25.40;52.80
49132;DHT22;35149;51.196;6.204;2023-05-07T13:40:42;25.40;52.60
49132;DHT22;35149;51.196;6.204;2023-05-07T13:43:08;25.40;51.10
49132;DHT22;35149;51.196;6.204;2023-05-07T13:45:35;25.40;50.40
49132;DHT22;35149;51.196;6.204;2023-05-07T13:48:02;25.40;49.70
49132;DHT22;35149;51.196;6.204;2023-05-07T13:50:29;25.40;50.60
49132;DHT22;35149;51.196;6.204;2023-05-07T13:52:56;25.40;50.50
49132;DHT22;35149;51.196;6.204;2023-05-07T13:55:23;25.40;50.50
49132;DHT22;35149;51.196;6.204;2023-05-07T13:57:55;25.40;51.00
49132;DHT22;35149;51.196;6.204;2023-05-07T14:00:23;25.40;50.90
49132;DHT22;35149;51.196;6.204;2023-05-07T14:02:50;25.40;51.60
49132;DHT22;35149;51.196;6.204;2023-05-07T14:05:17;25.40;51.20
49132;DHT22;35149;51.196;6.204;2023-05-07T14:07:43;25.40;51.10
49132;DHT22;35149;51.196;6.204;2023-05-07T14:10:10;25.30;50.70
49132;DHT22;35149;51.196;6.204;2023-05-07T14:12:38;25.30;51.00
49132;DHT22;35149;51.196;6.204;2023-05-07T14:15:05;25.30;51.90
49132;DHT22;35149;51.196;6.204;2023-05-07T14:17:32;25.20;52.30
49132;DHT22;35149;51.196;6.204;2023-05-07T14:19:58;25.40;52.60
49132;DHT22;35149;51.196;6.204;2023-05-07T14:22:25;25.10;52.60
49132;DHT22;35149;51.196;6.204;2023-05-07T14:24:51;25.10;53.00
49132;DHT22;35149;51.196;6.204;2023-05-07T14:27:38;24.90;53.50
49132;DHT22;35149;51.196;6.204;2023-05-07T14:30:05;24.90;54.10
49132;DHT22;35149;51.196;6.204;2023-05-07T14:32:33;24.90;54.80
49132;DHT22;35149;51.196;6.204;2023-05-07T14:34:59;24.80;55.50
49132;DHT22;35149;51.196;6.204;2023-05-07T14:37:26;24.80;55.80
49132;DHT22;35149;51.196;6.204;2023-05-07T14:39:53;24.80;55.60
49132;DHT22;35149;51.196;6.204;2023-05-07T14:42:20;24.90;55.70
49132;DHT22;35149;51.196;6.204;2023-05-07T14:44:46;24.70;55.40
49132;DHT22;35149;51.196;6.204;2023-05-07T14:47:14;24.70;55.50
49132;DHT22;35149;51.196;6.204;2023-05-07T14:49:45;24.70;55.50
49132;DHT22;35149;51.196;6.204;2023-05-07T14:52:11;24.70;56.20
49132;DHT22;35149;51.196;6.204;2023-05-07T14:54:38;24.70;55.70
49132;DHT22;35149;51.196;6.204;2023-05-07T14:57:06;24.70;57.00
49132;DHT22;35149;51.196;6.204;2023-05-07T14:59:33;24.80;56.40
49132;DHT22;35149;51.196;6.204;2023-05-07T15:02:02;24.90;56.70
49132;DHT22;35149;51.196;6.204;2023-05-07T15:04:32;24.90;56.30
49132;DHT22;35149;51.196;6.204;2023-05-07T15:06:59;25.10;55.90
49132;DHT22;35149;51.196;6.204;2023-05-07T15:09:29;25.10;55.80
49132;DHT22;35149;51.196;6.204;2023-05-07T15:11:56;25.20;55.70
49132;DHT22;35149;51.196;6.204;2023-05-07T15:14:22;25.40;55.90
49132;DHT22;35149;51.196;6.204;2023-05-07T15:16:49;25.50;55.10
49132;DHT22;35149;51.196;6.204;2023-05-07T15:19:16;25.70;54.80
49132;DHT22;35149;51.196;6.204;2023-05-07T15:21:43;25.90;53.90
49132;DHT22;35149;51.196;6.204;2023-05-07T15:24:09;26.10;54.10
49132;DHT22;35149;51.196;6.204;2023-05-07T15:26:36;26.20;53.90
49132;DHT22;35149;51.196;6.204;2023-05-07T15:29:03;26.40;53.50
49132;DHT22;35149;51.196;6.204;2023-05-07T15:31:34;26.60;53.70
49132;DHT22;35149;51.196;6.204;2023-05-07T15:34:00;26.70;52.70
49132;DHT22;35149;51.196;6.204;2023-05-07T15:36:27;26.80;51.80
49132;DHT22;35149;51.196;6.204;2023-05-07T15:38:54;26.80;52.10
49132;DHT22;35149;51.196;6.204;2023-05-07T15:41:21;26.90;51.90
49132;DHT22;35149;51.196;6.204;2023-05-07T15:43:50;27.00;52.70
49132;DHT22;35149;51.196;6.204;2023-05-07T15:46:19;27.10;52.00
49132;DHT22;35149;51.196;6.204;2023-05-07T15:48:47;27.30;51.20
49132;DHT22;35149;51.196;6.204;2023-05-07T15:51:13;27.40;50.50
49132;DHT22;35149;51.196;6.204;2023-05-07T15:53:40;27.50;49.90
49132;DHT22;35149;51.196;6.204;2023-05-07T15:56:07;27.60;50.00
49132;DHT22;35149;51.196;6.204;2023-05-07T15:58:34;27.60;49.60